sensor_id;sensor_type;location;lat;lon;timestamp;pressure;altitude;pressure_sealevel;temperature;humidity
32298;BME280;18782;48.984;8.548;2022-11-12T00:00:26;101634.31;;;7.53;100.00
32298;BME280;18782;48.984;8.548;2022-11-12T00:03:12;101631.66;;;7.52;100.00
32298;BME280;18782;48.984;8.548;2022-11-12T00:05:58;101631.38;;;7.47;100.00
32298;BME280;18782;48.984;8.548;2022-11-12T00:08:45;101633.72;;;7.44;100.00
32298;BME280;18782;48.984;8.548;2022-11-12T00:11:32;101621.88;;;7.46;100.00
32298;BME280;18782;48.984;8.548;2022-11-12T00:14:19;101628.38;;;7.41;100.00
32298;BME280;18782;48.984;8.548;2022-11-12T00:17:05;101629.78;;;7.49;100.00
32298;BME280;18782;48.984;8.548;2022-11-12T00:19:51;101631.44;;;7.49;100.00
32298;BME280;18782;48.984;8.548;2022-11-12T00:22:38;101627.22;;;7.49;100.00
32298;BME280;18782;48.984;8.548;2022-11-12T00:25:24;101628.19;;;7.51;100.00
32298;BME280;18782;48.984;8.548;2022-11-12T00:28:11;101617.94;;;7.51;100.00
32298;BME280;18782;48.984;8.548;2022-11-12T00:30:58;101619.63;;;7.51;100.00
32298;BME280;18782;48.984;8.548;2022-11-12T00:33:44;101614.41;;;7.49;100.00
32298;BME280;18782;48.984;8.548;2022-11-12T00:36:31;101615.19;;;7.48;100.00
32298;BME280;18782;48.984;8.548;2022-11-12T00:39:20;101613.59;;;7.50;100.00
32298;BME280;18782;48.984;8.548;2022-11-12T00:42:06;101620.13;;;7.45;100.00
32298;BME280;18782;48.984;8.548;2022-11-12T00:44:53;101622.88;;;7.35;100.00
32298;BME280;18782;48.984;8.548;2022-11-12T00:47:39;101621.72;;;7.17;100.00
32298;BME280;18782;48.984;8.548;2022-11-12T00:50:25;101626.94;;;7.05;100.00
32298;BME280;18782;48.984;8.548;2022-11-12T00:53:12;101615.50;;;7.00;100.00
32298;BME280;18782;48.984;8.548;2022-11-12T00:56:02;101617.34;;;7.02;100.00
32298;BME280;18782;48.984;8.548;2022-11-12T00:58:49;101618.16;;;7.01;100.00
32298;BME280;18782;48.984;8.548;2022-11-12T01:01:36;101627.81;;;7.05;100.00
32298;BME280;18782;48.984;8.548;2022-11-12T01:04:23;101633.13;;;7.09;100.00
32298;BME280;18782;48.984;8.548;2022-11-12T01:07:09;101635.38;;;7.04;100.00
32298;BME280;18782;48.984;8.548;2022-11-12T01:09:55;101622.00;;;7.08;100.00
32298;BME280;18782;48.984;8.548;2022-11-12T01:12:41;101623.47;;;7.18;100.00
32298;BME280;18782;48.984;8.548;2022-11-12T01:15:28;101624.97;;;7.27;100.00
32298;BME280;18782;48.984;8.548;2022-11-12T01:18:15;101626.22;;;7.34;100.00
32298;BME280;18782;48.984;8.548;2022-11-12T01:21:02;101618.94;;;7.40;100.00
32298;BME280;18782;48.984;8.548;2022-11-12T01:23:50;101617.47;;;7.44;100.00
32298;BME280;18782;48.984;8.548;2022-11-12T01:26:36;101611.47;;;7.43;100.00
32298;BME280;18782;48.984;8.548;2022-11-12T01:29:23;101620.13;;;7.45;100.00
32298;BME280;18782;48.984;8.548;2022-11-12T01:32:10;101618.06;;;7.53;100.00
32298;BME280;18782;48.984;8.548;2022-11-12T01:34:57;101610.16;;;7.50;100.00
32298;BME280;18782;48.984;8.548;2022-11-12T01:37:43;101607.88;;;7.41;100.00
32298;BME280;18782;48.984;8.548;2022-11-12T01:40:30;101629.97;;;7.39;100.00
32298;BME280;18782;48.984;8.548;2022-11-12T01:43:17;101616.00;;;7.34;100.00
32298;BME280;18782;48.984;8.548;2022-11-12T01:46:06;101612.63;;;7.35;100.00
32298;BME280;18782;48.984;8.548;2022-11-12T01:48:58;101609.59;;;7.27;100.00
32298;BME280;18782;48.984;8.548;2022-11-12T01:51:50;101605.56;;;7.31;100.00
32298;BME280;18782;48.984;8.548;2022-11-12T01:54:41;101606.94;;;7.26;100.00
32298;BME280;18782;48.984;8.548;2022-11-12T01:57:31;101601.81;;;7.26;100.00
32298;BME280;18782;48.984;8.548;2022-11-12T02:00:20;101612.06;;;7.26;100.00
32298;BME280;18782;48.984;8.548;2022-11-12T02:03:09;101595.31;;;7.18;100.00
32298;BME280;18782;48.984;8.548;2022-11-12T02:06:00;101589.59;;;7.09;100.00
32298;BME280;18782;48.984;8.548;2022-11-12T02:08:50;101585.84;;;7.03;100.00
32298;BME280;18782;48.984;8.548;2022-11-12T02:11:36;101588.22;;;7.00;100.00
32298;BME280;18782;48.984;8.548;2022-11-12T02:14:22;101574.63;;;7.01;100.00
32298;BME280;18782;48.984;8.548;2022-11-12T02:17:08;101581.91;;;7.09;100.00
32298;BME280;18782;48.984;8.548;2022-11-12T02:19:57;101586.53;;;7.14;100.00
32298;BME280;18782;48.984;8.548;2022-11-12T02:22:45;101587.84;;;7.21;100.00
32298;BME280;18782;48.984;8.548;2022-11-12T02:25:31;101581.31;;;7.26;100.00
32298;BME280;18782;48.984;8.548;2022-11-12T02:28:18;101575.78;;;7.20;100.00
32298;BME280;18782;48.984;8.548;2022-11-12T02:31:05;101579.16;;;7.19;100.00
32298;BME280;18782;48.984;8.548;2022-11-12T02:33:51;101592.75;;;7.18;100.00
32298;BME280;18782;48.984;8.548;2022-11-12T02:36:37;101588.50;;;7.18;100.00
32298;BME280;18782;48.984;8.548;2022-11-12T02:39:25;101589.59;;;7.22;100.00
32298;BME280;18782;48.984;8.548;2022-11-12T02:42:11;101582.72;;;7.21;100.00
32298;BME280;18782;48.984;8.548;2022-11-12T02:44:57;101582.72;;;7.21;100.00
32298;BME280;18782;48.984;8.548;2022-11-12T02:47:44;101585.28;;;7.21;100.00
32298;BME280;18782;48.984;8.548;2022-11-12T02:50:30;101590.19;;;7.18;100.00
32298;BME280;18782;48.984;8.548;2022-11-12T02:53:16;101589.38;;;7.19;100.00
32298;BME280;18782;48.984;8.548;2022-11-12T02:56:04;101588.50;;;7.18;100.00
32298;BME280;18782;48.984;8.548;2022-11-12T02:58:50;101587.84;;;7.21;100.00
32298;BME280;18782;48.984;8.548;2022-11-12T03:01:36;101587.91;;;7.22;100.00
32298;BME280;18782;48.984;8.548;2022-11-12T03:04:22;101599.13;;;7.24;100.00
32298;BME280;18782;48.984;8.548;2022-11-12T03:07:09;101591.34;;;7.10;100.00
32298;BME280;18782;48.984;8.548;2022-11-12T03:09:55;101585.03;;;6.78;100.00
32298;BME280;18782;48.984;8.548;2022-11-12T03:12:42;101589.91;;;6.62;100.00
32298;BME280;18782;48.984;8.548;2022-11-12T03:15:29;101586.00;;;6.53;100.00
32298;BME280;18782;48.984;8.548;2022-11-12T03:18:15;101588.31;;;6.50;100.00
32298;BME280;18782;48.984;8.548;2022-11-12T03:21:01;101591.06;;;6.40;100.00
32298;BME280;18782;48.984;8.548;2022-11-12T03:23:48;101595.19;;;6.38;100.00
32298;BME280;18782;48.984;8.548;2022-11-12T03:26:34;101594.25;;;6.24;100.00
32298;BME280;18782;48.984;8.548;2022-11-12T03:29:21;101597.84;;;6.15;100.00
32298;BME280;18782;48.984;8.548;2022-11-12T03:32:07;101595.66;;;6.08;100.00
32298;BME280;18782;48.984;8.548;2022-11-12T03:34:54;101595.00;;;5.98;100.00
32298;BME280;18782;48.984;8.548;2022-11-12T03:37:40;101596.59;;;5.96;100.00
32298;BME280;18782;48.984;8.548;2022-11-12T03:40:26;101594.34;;;5.89;100.00
32298;BME280;18782;48.984;8.548;2022-11-12T03:43:13;101584.03;;;5.88;100.00
32298;BME280;18782;48.984;8.548;2022-11-12T03:46:00;101595.03;;;5.87;100.00
32298;BME280;18782;48.984;8.548;2022-11-12T03:48:47;101594.72;;;5.82;100.00
32298;BME280;18782;48.984;8.548;2022-11-12T03:51:33;101595.69;;;5.84;100.00
32298;BME280;18782;48.984;8.548;2022-11-12T03:54:19;101594.25;;;5.88;100.00
32298;BME280;18782;48.984;8.548;2022-11-12T03:57:05;101593.03;;;5.83;100.00
32298;BME280;18782;48.984;8.548;2022-11-12T03:59:51;101591.91;;;5.79;100.00
32298;BME280;18782;48.984;8.548;2022-11-12T04:02:39;101591.72;;;5.76;100.00
32298;BME280;18782;48.984;8.548;2022-11-12T04:05:26;101586.19;;;5.70;100.00
32298;BME280;18782;48.984;8.548;2022-11-12T04:08:30;101582.44;;;5.65;100.00
32298;BME280;18782;48.984;8.548;2022-11-12T04:11:23;101596.59;;;5.73;100.00
32298;BME280;18782;48.984;8.548;2022-11-12T04:14:09;101591.06;;;5.67;100.00
32298;BME280;18782;48.984;8.548;2022-11-12T04:16:55;101589.50;;;5.69;100.00
32298;BME280;18782;48.984;8.548;2022-11-12T04:20:00;101582.84;;;5.71;100.00
32298;BME280;18782;48.984;8.548;2022-11-12T04:23:04;101582.19;;;5.62;100.00
32298;BME280;18782;48.984;8.548;2022-11-12T04:25:50;101582.28;;;5.63;100.00
32298;BME280;18782;48.984;8.548;2022-11-12T04:28:54;101583.00;;;5.61;100.00
32298;BME280;18782;48.984;8.548;2022-11-12T04:31:58;101583.97;;;5.63;100.00
32298;BME280;18782;48.984;8.548;2022-11-12T04:34:44;101583.41;;;5.67;100.00
32298;BME280;18782;48.984;8.548;2022-11-12T04:37:33;101587.31;;;5.62;100.00
32298;BME280;18782;48.984;8.548;2022-11-12T04:40:29;101591.88;;;5.66;100.00
32298;BME280;18782;48.984;8.548;2022-11-12T04:43:33;101584.66;;;5.60;100.00
32298;BME280;18782;48.984;8.548;2022-11-12T04:46:36;101592.66;;;5.65;100.00
32298;BME280;18782;48.984;8.548;2022-11-12T04:49:22;101582.63;;;5.68;100.00
32298;BME280;18782;48.984;8.548;2022-11-12T04:52:08;101585.78;;;5.64;100.00
32298;BME280;18782;48.984;8.548;2022-11-12T04:54:56;101581.09;;;5.58;100.00
32298;BME280;18782;48.984;8.548;2022-11-12T04:57:43;101586.78;;;5.54;100.00
32298;BME280;18782;48.984;8.548;2022-11-12T05:00:29;101585.13;;;5.55;100.00
32298;BME280;18782;48.984;8.548;2022-11-12T05:03:15;101582.13;;;5.48;100.00
32298;BME280;18782;48.984;8.548;2022-11-12T05:06:02;101576.25;;;5.49;100.00
32298;BME280;18782;48.984;8.548;2022-11-12T05:08:48;101581.53;;;5.53;100.00
32298;BME280;18782;48.984;8.548;2022-11-12T05:11:36;101575.97;;;5.58;100.00
32298;BME280;18782;48.984;8.548;2022-11-12T05:14:22;101569.34;;;5.60;100.00
32298;BME280;18782;48.984;8.548;2022-11-12T05:17:08;101567.53;;;5.71;100.00
32298;BME280;18782;48.984;8.548;2022-11-12T05:19:54;101569.97;;;5.69;100.00
32298;BME280;18782;48.984;8.548;2022-11-12T05:22:41;101571.53;;;5.67;100.00
32298;BME280;18782;48.984;8.548;2022-11-12T05:25:47;101572.81;;;5.74;100.00
32298;BME280;18782;48.984;8.548;2022-11-12T05:28:34;101571.47;;;5.79;100.00
32298;BME280;18782;48.984;8.548;2022-11-12T05:31:21;101572.16;;;5.76;100.00
32298;BME280;18782;48.984;8.548;2022-11-12T05:34:07;101574.81;;;5.78;100.00
32298;BME280;18782;48.984;8.548;2022-11-12T05:36:53;101574.81;;;5.78;100.00
32298;BME280;18782;48.984;8.548;2022-11-12T05:39:39;101573.28;;;5.80;100.00
32298;BME280;18782;48.984;8.548;2022-11-12T05:42:26;101571.06;;;5.85;100.00
32298;BME280;18782;48.984;8.548;2022-11-12T05:45:13;101568.78;;;5.89;100.00
32298;BME280;18782;48.984;8.548;2022-11-12T05:48:00;101573.88;;;5.89;100.00
32298;BME280;18782;48.984;8.548;2022-11-12T05:50:48;101587.72;;;5.91;100.00
32298;BME280;18782;48.984;8.548;2022-11-12T05:53:54;101587.72;;;5.91;100.00
32298;BME280;18782;48.984;8.548;2022-11-12T05:56:40;101585.47;;;5.96;100.00
32298;BME280;18782;48.984;8.548;2022-11-12T05:59:26;101588.47;;;5.90;100.00
32298;BME280;18782;48.984;8.548;2022-11-12T06:02:14;101600.78;;;5.84;100.00
32298;BME280;18782;48.984;8.548;2022-11-12T06:05:00;101597.50;;;5.85;100.00
32298;BME280;18782;48.984;8.548;2022-11-12T06:07:46;101599.44;;;5.89;100.00
32298;BME280;18782;48.984;8.548;2022-11-12T06:10:33;101609.38;;;5.85;100.00
32298;BME280;18782;48.984;8.548;2022-11-12T06:13:21;101606.69;;;5.83;100.00
32298;BME280;18782;48.984;8.548;2022-11-12T06:16:08;101609.47;;;5.86;100.00
32298;BME280;18782;48.984;8.548;2022-11-12T06:18:56;101609.66;;;5.89;100.00
32298;BME280;18782;48.984;8.548;2022-11-12T06:21:43;101613.56;;;5.84;100.00
32298;BME280;18782;48.984;8.548;2022-11-12T06:24:29;101611.03;;;5.84;100.00
32298;BME280;18782;48.984;8.548;2022-11-12T06:27:19;101618.13;;;5.88;100.00
32298;BME280;18782;48.984;8.548;2022-11-12T06:30:06;101614.25;;;5.93;100.00
32298;BME280;18782;48.984;8.548;2022-11-12T06:32:53;101626.81;;;6.02;100.00
32298;BME280;18782;48.984;8.548;2022-11-12T06:35:40;101615.88;;;6.05;100.00
32298;BME280;18782;48.984;8.548;2022-11-12T06:38:28;101623.56;;;6.05;100.00
32298;BME280;18782;48.984;8.548;2022-11-12T06:41:15;101631.22;;;6.05;100.00
32298;BME280;18782;48.984;8.548;2022-11-12T06:44:02;101627.13;;;6.07;100.00
32298;BME280;18782;48.984;8.548;2022-11-12T06:46:49;101628.53;;;6.15;100.00
32298;BME280;18782;48.984;8.548;2022-11-12T06:49:35;101626.75;;;6.14;100.00
32298;BME280;18782;48.984;8.548;2022-11-12T06:52:23;101625.19;;;6.16;100.00
32298;BME280;18782;48.984;8.548;2022-11-12T06:55:09;101635.22;;;6.13;100.00
32298;BME280;18782;48.984;8.548;2022-11-12T06:57:55;101630.03;;;6.24;100.00
32298;BME280;18782;48.984;8.548;2022-11-12T07:00:41;101622.28;;;6.23;99.20
32298;BME280;18782;48.984;8.548;2022-11-12T07:03:27;101624.94;;;6.24;98.84
32298;BME280;18782;48.984;8.548;2022-11-12T07:06:15;101622.28;;;6.23;97.24
32298;BME280;18782;48.984;8.548;2022-11-12T07:09:05;101627.00;;;6.30;98.76
32298;BME280;18782;48.984;8.548;2022-11-12T07:11:52;101616.63;;;6.40;99.57
32298;BME280;18782;48.984;8.548;2022-11-12T07:14:38;101613.25;;;6.28;96.79
32298;BME280;18782;48.984;8.548;2022-11-12T07:17:24;101614.03;;;6.27;98.49
32298;BME280;18782;48.984;8.548;2022-11-12T07:20:11;101612.59;;;5.94;98.53
32298;BME280;18782;48.984;8.548;2022-11-12T07:22:58;101611.69;;;5.93;99.62
32298;BME280;18782;48.984;8.548;2022-11-12T07:25:54;101605.63;;;5.68;99.92
32298;BME280;18782;48.984;8.548;2022-11-12T07:28:41;101614.44;;;5.60;100.00
32298;BME280;18782;48.984;8.548;2022-11-12T07:31:27;101614.44;;;5.60;100.00
32298;BME280;18782;48.984;8.548;2022-11-12T07:34:13;101605.00;;;5.59;99.76
32298;BME280;18782;48.984;8.548;2022-11-12T07:36:59;101604.72;;;5.67;100.00
32298;BME280;18782;48.984;8.548;2022-11-12T07:39:45;101615.41;;;5.62;99.45
32298;BME280;18782;48.984;8.548;2022-11-12T07:42:33;101616.63;;;5.67;100.00
32298;BME280;18782;48.984;8.548;2022-11-12T07:45:20;101611.06;;;5.72;99.77
32298;BME280;18782;48.984;8.548;2022-11-12T07:48:07;101601.94;;;5.76;98.99
32298;BME280;18782;48.984;8.548;2022-11-12T07:50:59;101605.28;;;5.75;97.93
32298;BME280;18782;48.984;8.548;2022-11-12T07:53:46;101592.66;;;5.65;97.89
32298;BME280;18782;48.984;8.548;2022-11-12T07:56:32;101592.78;;;5.55;98.98
32298;BME280;18782;48.984;8.548;2022-11-12T07:59:20;101586.88;;;5.56;98.75
32298;BME280;18782;48.984;8.548;2022-11-12T08:02:07;101590.09;;;5.65;98.94
32298;BME280;18782;48.984;8.548;2022-11-12T08:04:54;101601.97;;;5.53;99.01
32298;BME280;18782;48.984;8.548;2022-11-12T08:07:40;101612.19;;;5.53;100.00
32298;BME280;18782;48.984;8.548;2022-11-12T08:10:27;101611.56;;;5.43;99.33
32298;BME280;18782;48.984;8.548;2022-11-12T08:13:13;101593.56;;;5.54;99.89
32298;BME280;18782;48.984;8.548;2022-11-12T08:16:01;101601.97;;;5.64;99.69
32298;BME280;18782;48.984;8.548;2022-11-12T08:18:47;101612.19;;;5.64;99.05
32298;BME280;18782;48.984;8.548;2022-11-12T08:21:34;101601.56;;;5.95;100.00
32298;BME280;18782;48.984;8.548;2022-11-12T08:24:20;101604.19;;;5.71;99.08
32298;BME280;18782;48.984;8.548;2022-11-12T08:27:06;101601.66;;;5.60;98.22
32298;BME280;18782;48.984;8.548;2022-11-12T08:29:53;101591.75;;;5.53;98.87
32298;BME280;18782;48.984;8.548;2022-11-12T08:32:40;101595.63;;;5.71;98.23
32298;BME280;18782;48.984;8.548;2022-11-12T08:35:28;101601.25;;;5.90;98.94
32298;BME280;18782;48.984;8.548;2022-11-12T08:38:15;101608.75;;;6.12;98.38
32298;BME280;18782;48.984;8.548;2022-11-12T08:41:03;101619.13;;;6.02;98.13
32298;BME280;18782;48.984;8.548;2022-11-12T08:43:50;101616.16;;;6.21;98.00
32298;BME280;18782;48.984;8.548;2022-11-12T08:46:36;101608.63;;;6.36;97.04
32298;BME280;18782;48.984;8.548;2022-11-12T08:49:24;101608.22;;;6.68;96.39
32298;BME280;18782;48.984;8.548;2022-11-12T08:52:10;101621.06;;;6.81;95.75
32298;BME280;18782;48.984;8.548;2022-11-12T08:54:56;101620.09;;;6.92;94.82
32298;BME280;18782;48.984;8.548;2022-11-12T08:57:43;101618.06;;;7.00;94.57
32298;BME280;18782;48.984;8.548;2022-11-12T09:00:31;101619.91;;;7.02;94.59
32298;BME280;18782;48.984;8.548;2022-11-12T09:03:19;101620.59;;;6.87;92.10
32298;BME280;18782;48.984;8.548;2022-11-12T09:06:07;101619.97;;;6.64;93.29
32298;BME280;18782;48.984;8.548;2022-11-12T09:08:53;101615.72;;;6.65;94.85
32298;BME280;18782;48.984;8.548;2022-11-12T09:11:39;101617.50;;;6.66;95.69
32298;BME280;18782;48.984;8.548;2022-11-12T09:14:25;101613.00;;;6.75;95.66
32298;BME280;18782;48.984;8.548;2022-11-12T09:17:12;101612.13;;;6.88;95.12
32298;BME280;18782;48.984;8.548;2022-11-12T09:19:59;101615.69;;;6.90;94.78
32298;BME280;18782;48.984;8.548;2022-11-12T09:22:46;101616.00;;;6.94;94.73
32298;BME280;18782;48.984;8.548;2022-11-12T09:25:33;101624.38;;;7.05;93.65
32298;BME280;18782;48.984;8.548;2022-11-12T09:28:20;101615.59;;;7.15;93.66
32298;BME280;18782;48.984;8.548;2022-11-12T09:31:07;101621.81;;;7.31;92.41
32298;BME280;18782;48.984;8.548;2022-11-12T09:33:53;101620.13;;;7.32;92.68
32298;BME280;18782;48.984;8.548;2022-11-12T09:36:39;101629.88;;;7.24;93.26
32298;BME280;18782;48.984;8.548;2022-11-12T09:39:27;101628.63;;;7.31;94.30
32298;BME280;18782;48.984;8.548;2022-11-12T09:42:16;101631.75;;;7.14;93.71
32298;BME280;18782;48.984;8.548;2022-11-12T09:45:09;101623.97;;;7.12;93.28
32298;BME280;18782;48.984;8.548;2022-11-12T09:48:01;101627.31;;;7.11;95.23
32298;BME280;18782;48.984;8.548;2022-11-12T09:50:55;101621.63;;;7.15;95.87
32298;BME280;18782;48.984;8.548;2022-11-12T09:53:46;101627.00;;;7.20;97.15
32298;BME280;18782;48.984;8.548;2022-11-12T09:56:37;101619.34;;;7.33;95.64
32298;BME280;18782;48.984;8.548;2022-11-12T09:59:26;101631.56;;;7.37;93.50
32298;BME280;18782;48.984;8.548;2022-11-12T10:02:24;101624.75;;;7.38;93.53
32298;BME280;18782;48.984;8.548;2022-11-12T10:05:24;101630.28;;;7.44;93.88
32298;BME280;18782;48.984;8.548;2022-11-12T10:08:25;101624.69;;;8.19;100.00
32298;BME280;18782;48.984;8.548;2022-11-12T10:11:36;101621.47;;;8.08;96.12
32298;BME280;18782;48.984;8.548;2022-11-12T10:15:04;101618.75;;;7.92;94.83
32298;BME280;18782;48.984;8.548;2022-11-12T10:18:08;101616.09;;;7.90;93.18
32298;BME280;18782;48.984;8.548;2022-11-12T10:21:03;101619.75;;;7.94;93.22
32298;BME280;18782;48.984;8.548;2022-11-12T10:23:53;101614.72;;;7.95;93.08
32298;BME280;18782;48.984;8.548;2022-11-12T10:26:39;101619.13;;;7.98;92.64
32298;BME280;18782;48.984;8.548;2022-11-12T10:29:29;101613.47;;;8.03;92.15
32298;BME280;18782;48.984;8.548;2022-11-12T10:32:18;101607.31;;;8.00;92.64
32298;BME280;18782;48.984;8.548;2022-11-12T10:35:05;101612.44;;;8.00;92.69
32298;BME280;18782;48.984;8.548;2022-11-12T10:37:55;101606.50;;;8.01;91.95
32298;BME280;18782;48.984;8.548;2022-11-12T10:40:42;101607.47;;;8.03;91.99
32298;BME280;18782;48.984;8.548;2022-11-12T10:43:28;101609.13;;;8.16;91.62
32298;BME280;18782;48.984;8.548;2022-11-12T10:46:18;101616.59;;;8.26;91.16
32298;BME280;18782;48.984;8.548;2022-11-12T10:49:21;101605.97;;;8.20;91.55
32298;BME280;18782;48.984;8.548;2022-11-12T10:52:20;101607.00;;;8.23;91.89
32298;BME280;18782;48.984;8.548;2022-11-12T10:55:15;101616.09;;;7.90;91.35
32298;BME280;18782;48.984;8.548;2022-11-12T10:58:04;101610.03;;;7.75;92.05
32298;BME280;18782;48.984;8.548;2022-11-12T11:00:54;101605.28;;;7.81;92.70
32298;BME280;18782;48.984;8.548;2022-11-12T11:03:44;101598.16;;;7.90;96.31
32298;BME280;18782;48.984;8.548;2022-11-12T11:06:33;101598.19;;;8.33;100.00
32298;BME280;18782;48.984;8.548;2022-11-12T11:09:20;101592.13;;;8.18;96.19
32298;BME280;18782;48.984;8.548;2022-11-12T11:12:21;101590.81;;;8.24;92.96
32298;BME280;18782;48.984;8.548;2022-11-12T11:15:17;101589.31;;;8.28;90.89
32298;BME280;18782;48.984;8.548;2022-11-12T11:18:06;101587.56;;;8.27;91.86
32298;BME280;18782;48.984;8.548;2022-11-12T11:21:01;101591.88;;;8.28;91.53
32298;BME280;18782;48.984;8.548;2022-11-12T11:23:55;101582.44;;;8.27;91.16
32298;BME280;18782;48.984;8.548;2022-11-12T11:26:53;101582.06;;;8.21;91.94
32298;BME280;18782;48.984;8.548;2022-11-12T11:29:58;101585.25;;;8.17;92.18
32298;BME280;18782;48.984;8.548;2022-11-12T11:33:04;101590.56;;;8.20;92.00
32298;BME280;18782;48.984;8.548;2022-11-12T11:36:17;101582.06;;;8.21;92.92
32298;BME280;18782;48.984;8.548;2022-11-12T11:39:15;101577.47;;;8.30;92.78
32298;BME280;18782;48.984;8.548;2022-11-12T11:42:16;101568.81;;;8.28;93.16
32298;BME280;18782;48.984;8.548;2022-11-12T11:45:15;101571.84;;;8.35;92.18
32298;BME280;18782;48.984;8.548;2022-11-12T11:48:08;101568.66;;;8.40;92.13
32298;BME280;18782;48.984;8.548;2022-11-12T11:51:01;101564.41;;;8.40;91.47
32298;BME280;18782;48.984;8.548;2022-11-12T11:53:56;101564.56;;;8.28;92.29
32298;BME280;18782;48.984;8.548;2022-11-12T11:56:50;101567.63;;;8.36;92.34
32298;BME280;18782;48.984;8.548;2022-11-12T11:59:49;101569.56;;;8.40;94.93
32298;BME280;18782;48.984;8.548;2022-11-12T12:02:57;101567.59;;;8.08;91.99
32298;BME280;18782;48.984;8.548;2022-11-12T12:06:08;101560.63;;;8.05;95.28
32298;BME280;18782;48.984;8.548;2022-11-12T12:09:21;101560.19;;;8.13;93.25
32298;BME280;18782;48.984;8.548;2022-11-12T12:12:21;101557.47;;;8.09;93.23
32298;BME280;18782;48.984;8.548;2022-11-12T12:15:31;101555.13;;;7.99;93.32
32298;BME280;18782;48.984;8.548;2022-11-12T12:18:30;101549.28;;;8.02;93.74
32298;BME280;18782;48.984;8.548;2022-11-12T12:21:20;101544.75;;;7.98;94.73
32298;BME280;18782;48.984;8.548;2022-11-12T12:24:14;101542.06;;;8.09;93.95
32298;BME280;18782;48.984;8.548;2022-11-12T12:27:08;101538.50;;;8.07;93.54
32298;BME280;18782;48.984;8.548;2022-11-12T12:30:01;101531.50;;;7.90;92.84
32298;BME280;18782;48.984;8.548;2022-11-12T12:32:52;101534.47;;;8.11;93.82
32298;BME280;18782;48.984;8.548;2022-11-12T12:35:49;101533.75;;;8.14;91.59
32298;BME280;18782;48.984;8.548;2022-11-12T12:38:41;101526.56;;;8.08;92.33
32298;BME280;18782;48.984;8.548;2022-11-12T12:41:33;101521.56;;;8.09;92.82
32298;BME280;18782;48.984;8.548;2022-11-12T12:44:26;101521.28;;;8.05;92.34
32298;BME280;18782;48.984;8.548;2022-11-12T12:47:34;101517.31;;;7.82;93.47
32298;BME280;18782;48.984;8.548;2022-11-12T12:50:21;101519.72;;;7.79;92.54
32298;BME280;18782;48.984;8.548;2022-11-12T12:53:17;101506.47;;;7.86;92.78
32298;BME280;18782;48.984;8.548;2022-11-12T12:56:04;101507.81;;;7.94;92.88
32298;BME280;18782;48.984;8.548;2022-11-12T12:58:51;101500.66;;;8.03;92.94
32298;BME280;18782;48.984;8.548;2022-11-12T13:01:39;101492.53;;;8.10;93.62
32298;BME280;18782;48.984;8.548;2022-11-12T13:04:50;101490.22;;;8.00;91.45
32298;BME280;18782;48.984;8.548;2022-11-12T13:07:39;101497.94;;;8.30;95.25
32298;BME280;18782;48.984;8.548;2022-11-12T13:10:45;101489.00;;;8.23;91.75
32298;BME280;18782;48.984;8.548;2022-11-12T13:13:33;101489.72;;;8.21;90.87
32298;BME280;18782;48.984;8.548;2022-11-12T13:16:54;101481.72;;;8.01;91.31
32298;BME280;18782;48.984;8.548;2022-11-12T13:19:44;101487.94;;;8.05;91.61
32298;BME280;18782;48.984;8.548;2022-11-12T13:22:51;101481.38;;;7.95;91.59
32298;BME280;18782;48.984;8.548;2022-11-12T13:25:38;101475.19;;;8.06;92.03
32298;BME280;18782;48.984;8.548;2022-11-12T13:28:24;101471.22;;;8.11;92.75
32298;BME280;18782;48.984;8.548;2022-11-12T13:31:26;101472.81;;;8.24;91.75
32298;BME280;18782;48.984;8.548;2022-11-12T13:34:18;101479.81;;;8.27;92.36
32298;BME280;18782;48.984;8.548;2022-11-12T13:37:17;101470.69;;;8.32;92.68
32298;BME280;18782;48.984;8.548;2022-11-12T13:40:12;101481.94;;;8.34;91.99
32298;BME280;18782;48.984;8.548;2022-11-12T13:43:05;101482.50;;;8.43;91.46
32298;BME280;18782;48.984;8.548;2022-11-12T13:45:54;101472.69;;;8.36;91.00
32298;BME280;18782;48.984;8.548;2022-11-12T13:48:45;101473.91;;;8.43;91.70
32298;BME280;18782;48.984;8.548;2022-11-12T13:51:37;101465.56;;;8.32;91.70
32298;BME280;18782;48.984;8.548;2022-11-12T13:54:32;101469.97;;;8.34;92.70
32298;BME280;18782;48.984;8.548;2022-11-12T13:57:27;101463.38;;;8.38;93.05
32298;BME280;18782;48.984;8.548;2022-11-12T14:00:22;101460.03;;;8.39;92.94
32298;BME280;18782;48.984;8.548;2022-11-12T14:03:15;101453.97;;;8.24;92.19
32298;BME280;18782;48.984;8.548;2022-11-12T14:06:07;101455.03;;;8.27;93.32
32298;BME280;18782;48.984;8.548;2022-11-12T14:09:13;101446.28;;;8.24;92.97
32298;BME280;18782;48.984;8.548;2022-11-12T14:12:27;101446.53;;;8.14;92.95
32298;BME280;18782;48.984;8.548;2022-11-12T14:15:31;101447.78;;;8.05;94.17
32298;BME280;18782;48.984;8.548;2022-11-12T14:18:27;101448.03;;;7.95;94.86
32298;BME280;18782;48.984;8.548;2022-11-12T14:21:19;101450.41;;;7.92;95.08
32298;BME280;18782;48.984;8.548;2022-11-12T14:24:09;101450.25;;;7.89;95.96
32298;BME280;18782;48.984;8.548;2022-11-12T14:26:57;101444.25;;;7.89;95.95
32298;BME280;18782;48.984;8.548;2022-11-12T14:29:44;101451.22;;;7.91;96.46
32298;BME280;18782;48.984;8.548;2022-11-12T14:32:34;101446.69;;;7.87;96.99
32298;BME280;18782;48.984;8.548;2022-11-12T14:35:28;101443.88;;;7.97;96.89
32298;BME280;18782;48.984;8.548;2022-11-12T14:38:17;101435.78;;;8.04;97.35
32298;BME280;18782;48.984;8.548;2022-11-12T14:41:07;101437.53;;;8.05;96.79
32298;BME280;18782;48.984;8.548;2022-11-12T14:43:56;101446.72;;;8.17;96.66
32298;BME280;18782;48.984;8.548;2022-11-12T14:46:58;101434.97;;;8.20;96.29
32298;BME280;18782;48.984;8.548;2022-11-12T14:49:46;101434.69;;;8.16;96.08
32298;BME280;18782;48.984;8.548;2022-11-12T14:52:36;101428.97;;;8.20;96.27
32298;BME280;18782;48.984;8.548;2022-11-12T14:55:27;101433.44;;;8.24;96.51